Time;durP1;ratioP1;P1;durP2;ratioP2;P2;SDS_P1;SDS_P2;PMS_P1;PMS_P2;Temp;Humidity;BMP_temperature;BMP_pressure;BME280_temperature;BME280_humidity;BME280_pressure;Samples;Min_cycle;Max_cycle;Signal;HPM_P1;HPM_P2
2022/07/10 00:01:24;;;;;;;;;3.00;1.67;;;;;20.47;43.32;102368.75;5011084;28;45412;-78
2022/07/10 00:03:54;;;;;;;;;2.33;2.33;;;;;20.40;43.68;102366.19;5010752;28;45452;-78
2022/07/10 00:06:22;;;;;;;;;3.00;3.00;;;;;20.41;44.09;102371.50;5013692;28;45338;-78
2022/07/10 00:08:50;;;;;;;;;2.67;2.67;;;;;20.35;43.95;102371.63;5010552;28;45220;-77
2022/07/10 00:11:17;;;;;;;;;4.00;3.00;;;;;20.35;43.87;102373.44;5013193;28;45537;-77
2022/07/10 00:13:43;;;;;;;;;2.67;2.67;;;;;20.27;43.93;102365.53;5012909;28;45468;-78
2022/07/10 00:16:15;;;;;;;;;2.33;2.00;;;;;20.25;43.94;102370.91;5013821;28;45425;-79
2022/07/10 00:18:43;;;;;;;;;3.33;3.33;;;;;20.19;44.55;102363.00;5014876;28;45403;-78
2022/07/10 00:21:08;;;;;;;;;1.67;1.67;;;;;20.13;44.18;102365.78;5019886;28;45275;-79
2022/07/10 00:23:33;;;;;;;;;2.67;2.00;;;;;20.07;44.11;102363.19;5018722;28;45507;-77
2022/07/10 00:26:03;;;;;;;;;2.33;2.33;;;;;20.06;44.51;102374.81;5020574;28;46713;-78
2022/07/10 00:28:29;;;;;;;;;2.67;2.67;;;;;20.03;44.47;102369.53;5036384;28;45434;-77
2022/07/10 00:30:56;;;;;;;;;4.67;3.00;;;;;20.10;44.97;102381.91;5036479;28;45415;-78
2022/07/10 00:33:22;;;;;;;;;2.67;2.67;;;;;20.02;44.78;102383.78;5013805;28;45441;-76
2022/07/10 00:35:47;;;;;;;;;4.67;2.00;;;;;19.97;44.99;102372.31;5020928;28;45414;-78
2022/07/10 00:38:12;;;;;;;;;4.00;2.00;;;;;19.90;45.37;102368.84;5018049;28;45559;-77
2022/07/10 00:40:40;;;;;;;;;2.67;2.67;;;;;19.90;45.09;102379.53;5017448;28;45636;-77
2022/07/10 00:43:10;;;;;;;;;2.00;2.00;;;;;19.91;45.54;102375.06;5018172;28;45324;-77
2022/07/10 00:45:36;;;;;;;;;2.67;2.67;;;;;19.92;45.91;102384.88;5018540;28;45849;-78
2022/07/10 00:48:06;;;;;;;;;3.00;3.00;;;;;19.81;45.56;102372.56;5018248;28;45454;-77
2022/07/10 00:50:33;;;;;;;;;2.67;2.00;;;;;19.81;45.74;102369.00;5009388;28;45338;-78
2022/07/10 00:52:59;;;;;;;;;4.67;3.67;;;;;19.80;46.15;102378.78;5016055;28;45677;-77
2022/07/10 00:55:27;;;;;;;;;3.00;3.00;;;;;19.76;46.66;102361.06;5019321;28;47264;-77
2022/07/10 00:57:52;;;;;;;;;3.33;2.67;;;;;19.74;46.56;102372.69;5020667;28;45611;-77
2022/07/10 01:00:21;;;;;;;;;3.67;3.33;;;;;19.72;46.37;102371.81;5019491;28;45236;-77
2022/07/10 01:02:47;;;;;;;;;3.33;3.33;;;;;19.66;46.58;102369.22;5020551;28;45472;-79
2022/07/10 01:05:15;;;;;;;;;3.33;3.00;;;;;19.53;46.97;102349.81;5019270;28;47199;-77
2022/07/10 01:07:40;;;;;;;;;4.33;2.67;;;;;19.63;47.25;102366.59;5020139;28;45505;-79
2022/07/10 01:10:11;;;;;;;;;6.00;4.00;;;;;19.60;47.04;102360.38;5035978;28;45350;-79
2022/07/10 01:12:39;;;;;;;;;4.33;2.33;;;;;19.52;47.31;102359.63;5019100;28;45494;-77
2022/07/10 01:15:06;;;;;;;;;1.00;0.67;;;;;19.51;47.45;102360.53;5020351;28;45460;-77
2022/07/10 01:17:35;;;;;;;;;3.33;2.67;;;;;19.50;47.89;102358.75;5018726;28;45334;-77
2022/07/10 01:20:06;;;;;;;;;4.00;4.00;;;;;19.36;47.79;102350.06;5020586;28;45300;-77
2022/07/10 01:22:32;;;;;;;;;5.33;4.67;;;;;19.46;48.01;102366.81;5019728;28;45482;-77
2022/07/10 01:25:00;;;;;;;;;3.00;3.00;;;;;19.42;48.02;102368.66;5020352;28;45631;-77
2022/07/10 01:27:25;;;;;;;;;4.00;4.00;;;;;19.24;47.90;102348.44;5015945;28;45281;-80
2022/07/10 01:29:53;;;;;;;;;4.33;4.00;;;;;19.33;48.46;102367.03;5013353;28;45181;-79
2022/07/10 01:32:18;;;;;;;;;2.67;2.67;;;;;19.24;48.53;102361.78;5020226;28;45590;-79
2022/07/10 01:34:47;;;;;;;;;3.33;3.00;;;;;19.15;48.72;102344.13;5020042;28;46319;-79
2022/07/10 01:37:12;;;;;;;;;5.00;4.00;;;;;19.24;48.71;102368.91;5006899;28;45501;-79
2022/07/10 01:39:38;;;;;;;;;5.00;3.33;;;;;19.11;48.62;102344.16;5020186;28;45303;-79
2022/07/10 01:42:06;;;;;;;;;3.00;3.00;;;;;19.24;48.44;102368.91;5018122;28;45499;-79
2022/07/10 01:44:34;;;;;;;;;4.00;4.00;;;;;19.18;48.69;102365.44;5018605;28;47042;-79
2022/07/10 01:47:03;;;;;;;;;3.67;3.67;;;;;19.08;48.69;102361.09;5018439;28;45355;-79
2022/07/10 01:49:28;;;;;;;;;4.75;4.75;;;;;19.06;48.63;102352.25;5009732;28;45261;-79
2022/07/10 01:51:54;;;;;;;;;3.00;3.00;;;;;19.06;49.10;102354.94;5017948;28;45305;-79
2022/07/10 01:54:24;;;;;;;;;2.67;2.67;;;;;19.10;48.96;102361.09;5019681;28;45243;-79
2022/07/10 01:56:49;;;;;;;;;3.00;3.00;;;;;19.17;48.88;102378.81;5006990;28;45446;-79
2022/07/10 01:59:14;;;;;;;;;4.00;3.00;;;;;19.09;49.10;102368.25;5018138;28;45339;-79
2022/07/10 02:01:40;;;;;;;;;2.00;2.00;;;;;19.13;49.11;102380.63;5018499;28;45368;-79
2022/07/10 02:06:55;;;;;;;;;3.67;3.67;;;;;18.91;49.17;102358.66;5009045;28;45388;-79
2022/07/10 02:09:20;;;;;;;;;5.67;4.33;;;;;18.79;49.26;102347.25;5018279;28;45385;-79
2022/07/10 02:11:48;;;;;;;;;4.00;4.00;;;;;18.78;49.37;102358.84;5019836;28;45351;-79
2022/07/10 02:14:13;;;;;;;;;2.33;2.33;;;;;18.68;49.83;102347.34;5019439;28;46764;-80
2022/07/10 02:16:41;;;;;;;;;3.67;3.33;;;;;18.52;49.46;102331.53;5019677;28;45426;-80
2022/07/10 02:19:11;;;;;;;;;3.00;3.00;;;;;18.62;49.78;102348.31;5018406;28;45372;-79
2022/07/10 02:21:36;;;;;;;;;6.00;4.33;;;;;18.61;50.01;102345.69;5018005;28;45339;-79
2022/07/10 02:24:02;;;;;;;;;4.00;3.00;;;;;18.80;49.94;102368.59;5018115;28;46960;-80
2022/07/10 02:26:31;;;;;;;;;3.00;3.00;;;;;18.79;49.89;102371.28;5019767;28;45240;-79
2022/07/10 02:28:59;;;;;;;;;6.00;5.00;;;;;18.57;49.80;102339.47;5020892;28;45524;-79
2022/07/10 02:31:24;;;;;;;;;6.33;6.00;;;;;18.55;50.05;102349.31;5022955;28;45410;-79
2022/07/10 02:33:50;;;;;;;;;4.67;4.67;;;;;18.50;50.26;102341.34;5013197;28;46941;-80
2022/07/10 02:36:15;;;;;;;;;3.67;3.67;;;;;18.45;50.16;102334.28;5022890;28;45399;-79
2022/07/10 02:38:40;;;;;;;;;4.00;3.00;;;;;18.39;50.41;102327.25;5022871;28;45435;-79
2022/07/10 02:41:09;;;;;;;;;7.25;5.75;;;;;18.52;50.27;102349.31;5021832;28;45397;-79
2022/07/10 02:43:34;;;;;;;;;5.00;4.00;;;;;18.33;50.50;102311.28;5022571;28;46623;-78
2022/07/10 02:45:59;;;;;;;;;5.00;5.00;;;;;18.34;50.94;102317.53;5022888;28;45256;-79
2022/07/10 02:48:25;;;;;;;;;3.33;3.00;;;;;18.46;50.73;102341.38;5021137;28;45317;-78
2022/07/10 02:50:53;;;;;;;;;2.00;2.00;;;;;18.35;50.48;102327.28;5012110;28;45522;-78
2022/07/10 02:53:18;;;;;;;;;6.00;5.00;;;;;18.33;50.95;102319.28;5037572;28;47463;-78
2022/07/10 02:55:46;;;;;;;;;4.00;4.00;;;;;18.27;50.96;102322.03;5037830;28;45611;-78
2022/07/10 02:58:15;;;;;;;;;4.00;4.00;;;;;18.25;50.93;102326.50;5021434;28;45475;-79
2022/07/10 03:00:41;;;;;;;;;4.67;4.00;;;;;18.28;50.93;102334.44;5022416;28;45513;-78
2022/07/10 03:03:07;;;;;;;;;4.00;4.00;;;;;18.30;51.11;102346.88;5020916;28;46163;-79
2022/07/10 03:05:33;;;;;;;;;5.00;5.00;;;;;18.16;50.80;102322.13;5021188;28;45348;-78
2022/07/10 03:07:58;;;;;;;;;4.33;4.33;;;;;18.30;51.24;102359.31;5021021;28;45281;-79
2022/07/10 03:10:24;;;;;;;;;4.00;4.00;;;;;18.26;50.94;102355.81;5021054;28;45602;-78
2022/07/10 03:12:49;;;;;;;;;6.75;5.00;;;;;18.25;50.83;102358.47;5022361;28;46202;-78
2022/07/10 03:15:15;;;;;;;;;6.00;4.00;;;;;17.94;51.17;102308.16;5022410;28;45265;-79
2022/07/10 03:17:40;;;;;;;;;3.00;3.00;;;;;18.01;51.24;102320.50;5022456;28;45227;-79
2022/07/10 03:20:08;;;;;;;;;4.00;3.00;;;;;18.06;51.50;102328.44;5021062;28;45233;-78
2022/07/10 03:22:34;;;;;;;;;4.67;4.67;;;;;18.19;51.17;102350.56;5021702;28;47454;-78
2022/07/10 03:25:00;;;;;;;;;6.00;5.00;;;;;17.98;51.73;102308.97;5020750;28;45358;-78
2022/07/10 03:27:26;;;;;;;;;4.25;4.25;;;;;18.09;51.86;102328.41;5020796;28;45383;-79
2022/07/10 03:29:54;;;;;;;;;4.00;4.00;;;;;18.04;51.55;102335.56;5022105;28;45481;-78
2022/07/10 03:32:22;;;;;;;;;4.00;4.00;;;;;18.00;51.38;102318.72;5006947;28;46170;-78
2022/07/10 03:34:47;;;;;;;;;4.00;4.00;;;;;18.08;51.52;102332.00;5030882;28;45286;-78
2022/07/10 03:37:13;;;;;;;;;3.75;3.75;;;;;17.93;51.94;102309.03;5021655;28;45328;-79
2022/07/10 03:39:38;;;;;;;;;4.67;4.00;;;;;18.04;51.61;102324.91;5019838;28;45461;-78
2022/07/10 03:42:04;;;;;;;;;5.00;4.00;;;;;18.14;51.48;102339.03;5006981;28;46213;-79
2022/07/10 03:44:29;;;;;;;;;5.00;5.00;;;;;17.82;51.51;102293.13;5021571;28;45408;-78
2022/07/10 03:46:59;;;;;;;;;5.00;5.00;;;;;17.99;51.85;102319.66;5021891;28;45973;-79
2022/07/10 03:49:27;;;;;;;;;4.33;4.33;;;;;18.02;51.82;102327.59;5028683;28;45409;-79
2022/07/10 03:51:53;;;;;;;;;4.00;4.00;;;;;17.73;51.88;102284.31;5019568;28;46540;-78
2022/07/10 03:54:18;;;;;;;;;6.00;4.00;;;;;17.75;52.22;102296.72;5020530;28;45482;-79
2022/07/10 03:59:30;;;;;;;;;4.00;4.00;;;;;17.69;52.04;102304.75;5021644;28;45338;-78
2022/07/10 04:01:55;;;;;;;;;5.00;4.33;;;;;17.69;52.46;102311.88;5020183;28;46321;-78
2022/07/10 04:04:21;;;;;;;;;5.00;5.00;;;;;17.68;52.59;102307.44;5021671;28;45329;-79
2022/07/10 04:06:46;;;;;;;;;5.00;5.00;;;;;17.58;52.72;102291.53;5021562;28;45385;-79
2022/07/10 04:09:11;;;;;;;;;5.00;4.00;;;;;17.69;52.87;102311.88;5019777;28;45410;-79
2022/07/10 04:11:39;;;;;;;;;5.00;3.33;;;;;17.49;53.15;102291.59;5020209;28;45953;-78
2022/07/10 04:14:04;;;;;;;;;6.00;5.00;;;;;17.59;53.11;102311.94;5021570;28;45317;-78
2022/07/10 04:16:30;;;;;;;;;3.00;3.00;;;;;17.70;53.25;102321.66;5021460;28;45283;-79
2022/07/10 04:18:55;;;;;;;;;5.00;4.00;;;;;17.85;52.97;102342.84;5021442;28;45213;-78
2022/07/10 04:21:23;;;;;;;;;6.00;4.00;;;;;17.60;52.89;102300.41;5021054;28;45914;-78
2022/07/10 04:23:51;;;;;;;;;5.00;4.00;;;;;17.72;52.88;102311.84;5019840;28;45475;-79
2022/07/10 04:26:16;;;;;;;;;4.33;4.33;;;;;17.84;52.78;102327.78;5021404;28;45370;-78
2022/07/10 04:28:42;;;;;;;;;3.67;3.67;;;;;17.63;53.06;102299.50;5009531;28;45256;-78
2022/07/10 04:31:10;;;;;;;;;3.33;3.33;;;;;17.61;52.72;102294.19;5021187;28;45363;-79
2022/07/10 04:33:35;;;;;;;;;4.67;4.67;;;;;17.64;52.97;102302.16;5021070;28;45290;-79
2022/07/10 04:36:01;;;;;;;;;5.00;4.00;;;;;17.86;52.96;102352.63;5021130;28;45312;-79
2022/07/10 04:38:26;;;;;;;;;5.00;4.00;;;;;17.85;53.13;102342.84;5020747;28;45181;-79
2022/07/10 04:40:51;;;;;;;;;4.33;4.00;;;;;17.64;53.11;102303.91;5019710;28;47495;-78
2022/07/10 04:43:17;;;;;;;;;4.50;4.50;;;;;17.70;52.99;102303.88;5019436;28;45309;-79
2022/07/10 04:45:42;;;;;;;;;6.67;6.00;;;;;17.92;52.76;102335.69;5021371;28;45632;-78
2022/07/10 04:48:08;;;;;;;;;5.00;5.00;;;;;17.77;52.95;102315.34;5019533;28;45262;-78
2022/07/10 04:50:33;;;;;;;;;9.00;7.25;;;;;17.89;53.42;102333.06;5010119;28;47379;-79
2022/07/10 04:52:59;;;;;;;;;6.00;4.00;;;;;17.74;52.76;102297.59;5020033;28;45393;-79
2022/07/10 04:55:24;;;;;;;;;5.00;5.00;;;;;17.89;52.98;102327.72;5021120;28;45769;-79
2022/07/10 04:57:52;;;;;;;;;4.00;4.00;;;;;17.88;53.07;102318.84;5019296;28;45490;-79
2022/07/10 05:00:17;;;;;;;;;4.33;4.00;;;;;17.70;52.57;102297.66;5019576;28;47473;-79
2022/07/10 05:02:48;;;;;;;;;5.00;4.00;;;;;17.64;52.97;102286.16;5020607;28;45317;-79
2022/07/10 05:05:13;;;;;;;;;5.00;4.50;;;;;17.72;52.69;102310.09;5021063;28;45384;-78
2022/07/10 05:07:38;;;;;;;;;5.00;4.00;;;;;17.72;52.82;102304.75;5020155;28;45375;-78
2022/07/10 05:10:06;;;;;;;;;3.00;3.00;;;;;17.77;52.77;102312.69;5019300;28;47022;-79
2022/07/10 05:12:34;;;;;;;;;4.00;4.00;;;;;17.78;52.96;102315.34;5020379;28;45425;-79
2022/07/10 05:15:00;;;;;;;;;4.00;4.00;;;;;17.75;52.84;102295.81;5020675;28;45346;-77
2022/07/10 05:17:28;;;;;;;;;5.00;5.00;;;;;17.83;52.54;102310.91;5018947;28;45250;-78
2022/07/10 05:19:56;;;;;;;;;6.00;4.00;;;;;17.99;52.94;102338.31;5020739;28;46158;-78
2022/07/10 05:22:22;;;;;;;;;5.00;5.00;;;;;18.08;52.58;102353.31;5018544;28;45324;-79
2022/07/10 05:24:48;;;;;;;;;5.50;4.00;;;;;17.94;52.71;102331.25;5020532;28;45323;-78
2022/07/10 05:27:16;;;;;;;;;5.50;4.00;;;;;18.05;52.70;102340.91;5017189;28;45521;-78
2022/07/10 05:29:53;;;;;;;;;4.75;4.75;;;;;17.90;52.54;102319.72;5012331;28;46366;-78
2022/07/10 05:32:19;;;;;;;;;5.50;5.50;;;;;17.90;52.48;102319.72;5006804;28;45524;-78
2022/07/10 05:34:45;;;;;;;;;4.00;4.00;;;;;18.01;52.55;102341.81;5012641;28;45350;-78
2022/07/10 05:37:11;;;;;;;;;5.50;4.75;;;;;17.98;52.73;102332.97;5035080;28;45499;-78
2022/07/10 05:39:36;;;;;;;;;7.00;7.00;;;;;18.07;52.65;102351.56;5020038;28;45985;-78
2022/07/10 05:42:02;;;;;;;;;6.00;5.25;;;;;18.13;52.45;102362.16;5018984;28;45865;-78
2022/07/10 05:44:33;;;;;;;;;4.25;2.50;;;;;17.94;52.46;102336.56;5018919;28;45467;-78
2022/07/10 05:46:59;;;;;;;;;6.00;5.00;;;;;17.97;52.57;102347.19;5020150;28;45372;-78
2022/07/10 05:49:25;;;;;;;;;3.67;3.67;;;;;17.94;52.65;102334.78;5010062;28;47018;-78
2022/07/10 05:51:52;;;;;;;;;6.00;6.00;;;;;18.12;52.43;102360.38;5018797;28;45358;-78
2022/07/10 05:54:18;;;;;;;;;4.50;4.50;;;;;18.02;52.54;102337.38;5020227;28;45374;-78
2022/07/10 05:56:44;;;;;;;;;5.00;4.50;;;;;18.16;52.45;102354.13;5020185;28;45371;-78
2022/07/10 05:59:10;;;;;;;;;4.67;4.33;;;;;18.22;52.38;102363.84;5019970;28;46345;-79
2022/07/10 06:01:38;;;;;;;;;6.00;6.00;;;;;18.12;52.24;102344.38;5018498;28;45705;-79
2022/07/10 06:04:03;;;;;;;;;4.00;4.00;;;;;18.18;52.36;102354.13;5017978;28;45682;-77
2022/07/10 06:06:31;;;;;;;;;6.00;5.00;;;;;18.29;52.14;102357.56;5019518;28;45498;-78
2022/07/10 06:08:59;;;;;;;;;5.00;4.67;;;;;18.28;52.21;102359.34;5019760;28;45353;-78
2022/07/10 06:11:24;;;;;;;;;5.75;5.75;;;;;18.29;51.95;102358.44;5020016;28;45626;-78
2022/07/10 06:13:50;;;;;;;;;4.00;4.00;;;;;18.26;51.88;102338.94;5018262;28;45442;-77
2022/07/10 06:16:15;;;;;;;;;6.00;6.00;;;;;18.26;51.87;102336.28;5019795;28;45243;-78
2022/07/10 06:18:41;;;;;;;;;5.50;5.00;;;;;18.33;52.03;102343.28;5018065;28;48040;-80
2022/07/10 06:21:09;;;;;;;;;5.00;5.00;;;;;18.48;51.72;102360.91;5019946;28;45216;-78
2022/07/10 06:23:37;;;;;;;;;4.33;4.00;;;;;18.41;51.58;102333.41;5019702;28;45389;-78
2022/07/10 06:26:02;;;;;;;;;6.00;5.00;;;;;18.58;51.43;102357.25;5018364;28;45491;-78
2022/07/10 06:28:28;;;;;;;;;8.00;5.00;;;;;18.60;51.89;102359.91;5006966;28;46288;-78
2022/07/10 06:30:58;;;;;;;;;7.00;5.00;;;;;18.46;51.95;102331.59;5018533;28;45462;-78
2022/07/10 06:33:23;;;;;;;;;5.00;4.00;;;;;18.59;51.40;102345.69;5011940;28;45322;-78
2022/07/10 06:35:49;;;;;;;;;5.00;5.00;;;;;18.56;51.51;102340.38;5019860;28;45308;-79
2022/07/10 06:38:16;;;;;;;;;4.00;3.00;;;;;18.48;51.48;102328.91;5017973;28;48097;-79
2022/07/10 06:40:44;;;;;;;;;5.00;5.00;;;;;18.67;51.84;102361.59;5020209;28;45411;-79
2022/07/10 06:43:12;;;;;;;;;3.33;3.33;;;;;18.72;51.41;102357.97;5019253;28;45295;-79
2022/07/10 06:45:40;;;;;;;;;6.00;5.00;;;;;18.76;51.50;102353.50;5019461;28;45282;-79
2022/07/10 06:48:06;;;;;;;;;5.00;5.00;;;;;18.77;51.33;102351.75;5019073;28;46080;-80
2022/07/10 06:50:34;;;;;;;;;5.33;5.33;;;;;18.81;51.27;102354.34;5018747;28;45526;-80
2022/07/10 06:53:00;;;;;;;;;5.67;4.33;;;;;18.83;51.32;102344.53;5018228;28;45496;-77
2022/07/10 06:55:27;;;;;;;;;5.00;5.00;;;;;18.83;51.06;102331.19;5018395;28;45492;-78
2022/07/10 06:57:55;;;;;;;;;3.67;3.67;;;;;18.95;50.96;102335.47;5018247;28;48088;-78
2022/07/10 07:00:21;;;;;;;;;5.25;5.25;;;;;18.99;50.52;102339.00;5019104;28;45434;-77
2022/07/10 07:02:47;;;;;;;;;5.00;5.00;;;;;19.16;50.00;102353.91;5018009;28;45435;-78
2022/07/10 07:05:15;;;;;;;;;3.00;3.00;;;;;19.19;49.78;102342.28;5019284;28;45417;-77
2022/07/10 07:07:40;;;;;;;;;4.67;4.67;;;;;19.28;49.86;102347.50;5017213;28;47087;-77
2022/07/10 07:10:09;;;;;;;;;4.67;4.67;;;;;19.31;49.36;102342.13;5019166;28;45340;-77
2022/07/10 07:12:38;;;;;;;;;3.00;3.00;;;;;19.41;49.08;102348.22;5017654;28;45396;-77
2022/07/10 07:15:03;;;;;;;;;3.00;3.00;;;;;19.54;48.65;102354.22;5019406;28;45874;-77
2022/07/10 07:17:46;;;;;;;;;4.00;4.00;;;;;19.63;48.48;102354.09;5020862;28;47076;-76
2022/07/10 07:23:10;;;;;;;;;3.67;3.00;;;;;19.74;48.13;102344.16;5011011;28;45521;-79
2022/07/10 07:25:39;;;;;;;;;2.67;2.67;;;;;19.87;48.07;102335.94;5037346;28;45494;-79
2022/07/10 07:28:15;;;;;;;;;;;;;;;;;;;;;
2022/07/10 07:30:42;;;;;;;;;2.33;2.33;;;;;20.09;47.02;102337.31;5020876;28;71605;-78
2022/07/10 07:33:10;;;;;;;;;5.67;5.33;;;;;20.16;46.82;102338.13;5015035;28;45533;-78
2022/07/10 07:35:35;;;;;;;;;5.00;4.67;;;;;20.23;47.08;102329.03;5020480;28;45586;-79
2022/07/10 07:38:02;;;;;;;;;4.67;4.00;;;;;20.34;46.79;102334.19;5020310;28;47080;-78
2022/07/10 07:40:28;;;;;;;;;4.33;4.33;;;;;20.41;46.50;102335.84;5008879;28;45371;-78
2022/07/10 07:42:58;;;;;;;;;2.67;2.67;;;;;20.46;46.15;102320.59;5022272;28;45401;-79
2022/07/10 07:45:24;;;;;;;;;2.00;2.00;;;;;20.46;46.30;102310.78;5020985;28;45536;-79
2022/07/10 07:47:55;;;;;;;;;5.00;4.00;;;;;20.53;46.02;102308.88;5022055;28;45535;-79
2022/07/10 07:50:42;;;;;;;;;4.00;3.00;;;;;20.60;46.13;102306.97;5017916;28;45414;-79
2022/07/10 07:53:10;;;;;;;;;2.67;2.67;;;;;20.74;45.95;102314.72;5019857;28;45333;-79
2022/07/10 07:55:35;;;;;;;;;2.00;2.00;;;;;20.79;45.29;102307.47;5022113;28;45218;-79
2022/07/10 07:58:02;;;;;;;;;4.00;3.00;;;;;20.95;45.66;102316.94;5020209;28;48172;-79
2022/07/10 08:00:28;;;;;;;;;4.67;4.67;;;;;21.05;45.22;102320.28;5021991;28;45299;-78
2022/07/10 08:02:56;;;;;;;;;5.33;4.00;;;;;21.13;45.03;102327.22;5021665;28;45483;-79
2022/07/10 08:05:23;;;;;;;;;4.00;4.00;;;;;21.24;44.87;102326.13;5020283;28;45404;-78
2022/07/10 08:08:04;;;;;;;;;4.33;4.33;;;;;21.25;44.75;102318.06;5020946;28;45379;-81
2022/07/10 08:10:32;;;;;;;;;5.33;4.67;;;;;21.36;44.19;102313.31;5021495;28;45390;-79
2022/07/10 08:12:57;;;;;;;;;3.67;3.00;;;;;21.49;44.03;102316.63;5007505;28;45437;-79
2022/07/10 08:15:26;;;;;;;;;4.33;3.33;;;;;21.55;43.72;102312.91;5021364;28;45493;-79
2022/07/10 08:17:53;;;;;;;;;6.00;3.33;;;;;21.63;43.66;102318.09;5021524;28;45287;-79
2022/07/10 08:20:19;;;;;;;;;3.00;2.00;;;;;21.68;43.24;102313.47;5019890;28;45376;-79
2022/07/10 08:23:08;;;;;;;;;4.00;3.33;;;;;21.73;43.17;102308.88;5019858;28;45411;-79
2022/07/10 08:25:36;;;;;;;;;3.00;3.00;;;;;21.91;42.93;102313.75;5021092;28;45412;-78
2022/07/10 08:28:13;;;;;;;;;3.67;3.00;;;;;22.06;42.54;102309.81;5020622;28;45393;-78
2022/07/10 08:30:41;;;;;;;;;3.33;2.33;;;;;22.19;42.07;102322.00;5021054;28;45224;-78
2022/07/10 08:33:07;;;;;;;;;3.00;3.00;;;;;22.23;41.87;102304.91;5013089;28;45355;-78
2022/07/10 08:35:35;;;;;;;;;5.67;4.00;;;;;22.36;40.94;102313.50;5021007;28;45460;-76
2022/07/10 08:38:01;;;;;;;;;3.67;3.67;;;;;22.39;40.58;102315.22;5020776;28;46537;-76
2022/07/10 08:40:37;;;;;;;;;3.00;3.00;;;;;22.46;40.80;102306.06;5021049;28;45489;-76
2022/07/10 08:43:05;;;;;;;;;2.00;2.00;;;;;22.55;39.97;102310.28;5023168;28;45286;-76
2022/07/10 08:45:34;;;;;;;;;3.00;2.00;;;;;22.57;40.27;102297.72;5009050;28;45478;-77
2022/07/10 08:48:06;;;;;;;;;2.33;2.33;;;;;22.66;39.65;102295.63;5022932;28;45592;-77
2022/07/10 08:50:49;;;;;;;;;3.00;3.00;;;;;22.75;40.03;102297.16;5009845;28;45855;-76
2022/07/10 08:53:32;;;;;;;;;2.00;2.00;;;;;22.84;39.46;102285.25;5019276;28;45505;-77
2022/07/10 08:56:00;;;;;;;;;3.00;3.00;;;;;22.92;39.01;102288.59;5020993;28;45328;-77
2022/07/10 08:58:30;;;;;;;;;3.00;3.00;;;;;22.99;39.52;102286.63;5020493;28;45474;-78
2022/07/10 09:00:55;;;;;;;;;4.33;3.33;;;;;23.07;39.63;102276.53;5019397;28;45305;-77
2022/07/10 09:03:21;;;;;;;;;2.00;2.00;;;;;23.15;39.03;102271.81;5020934;28;45359;-77
2022/07/10 09:05:46;;;;;;;;;2.00;2.00;;;;;23.21;38.93;102276.09;5019204;28;45598;-77
2022/07/10 09:08:22;;;;;;;;;2.67;2.67;;;;;23.26;38.98;102274.16;5019092;28;48049;-78
2022/07/10 09:10:47;;;;;;;;;3.00;3.00;;;;;23.32;38.67;102266.75;5020576;28;45253;-78
2022/07/10 09:13:13;;;;;;;;;2.00;2.00;;;;;23.38;38.70;102262.97;5020716;28;45259;-78
2022/07/10 09:15:47;;;;;;;;;3.67;3.00;;;;;23.44;38.65;102256.50;5019141;28;45325;-78
2022/07/10 09:18:12;;;;;;;;;3.00;3.00;;;;;23.52;38.58;102271.47;5020501;28;45489;-77
2022/07/10 09:20:40;;;;;;;;;2.00;2.00;;;;;23.63;38.33;102267.53;5020224;28;45295;-76
2022/07/10 09:26:33;;;;;;;;;3.00;3.00;;;;;23.76;37.99;102266.19;5010380;28;45283;-78
2022/07/10 09:29:12;;;;;;;;;4.00;4.00;;;;;23.83;37.28;102267.75;5020054;28;45431;-77
2022/07/10 09:31:55;;;;;;;;;2.67;2.67;;;;;23.84;37.11;102260.56;5035707;28;45350;-78
2022/07/10 09:34:36;;;;;;;;;3.67;3.00;;;;;23.89;37.48;102261.28;5016113;28;45338;-77
2022/07/10 09:37:24;;;;;;;;;2.00;2.00;;;;;23.97;37.20;102264.56;5019918;28;45327;-78
2022/07/10 09:40:00;;;;;;;;;4.33;4.33;;;;;24.02;37.40;102257.22;5018840;28;47114;-77
2022/07/10 09:42:42;;;;;;;;;5.00;5.00;;;;;24.14;37.27;102267.56;5018986;28;45420;-77
2022/07/10 09:45:16;;;;;;;;;4.00;4.00;;;;;24.22;36.62;102267.28;5019908;28;45293;-77
2022/07/10 09:47:47;;;;;;;;;2.00;2.00;;;;;24.28;36.81;102258.09;5018710;28;45572;-76
2022/07/10 09:50:24;;;;;;;;;4.33;3.00;;;;;24.33;36.74;102264.19;5009171;28;47350;-77
2022/07/10 09:52:55;;;;;;;;;2.67;2.67;;;;;24.35;36.64;102257.81;5019761;28;45431;-77
2022/07/10 09:55:26;;;;;;;;;3.33;2.33;;;;;24.41;36.33;102254.88;5020158;28;45370;-78
2022/07/10 09:58:00;;;;;;;;;3.00;3.00;;;;;24.47;36.86;102253.81;5018648;28;45535;-75
2022/07/10 10:00:40;;;;;;;;;2.00;2.00;;;;;24.55;36.07;102258.91;5018380;28;47489;-77
2022/07/10 10:03:11;;;;;;;;;3.00;2.00;;;;;24.61;35.76;102254.16;5019542;28;45234;-78
2022/07/10 10:05:53;;;;;;;;;3.00;3.00;;;;;24.66;36.05;102251.28;5019995;28;45420;-77
2022/07/10 10:08:29;;;;;;;;;2.00;2.00;;;;;24.69;36.16;102252.97;5007968;28;45634;-76
2022/07/10 10:11:00;;;;;;;;;4.00;4.00;;;;;24.74;35.41;102253.69;5019623;28;47199;-76
2022/07/10 10:13:33;;;;;;;;;3.33;3.00;;;;;24.77;35.78;102240.97;5019902;28;45486;-76
2022/07/10 10:16:01;;;;;;;;;4.00;4.00;;;;;24.83;35.80;102251.50;5019726;28;45485;-76
2022/07/10 10:18:29;;;;;;;;;3.00;3.00;;;;;24.86;35.53;102248.69;5018358;28;45551;-76
2022/07/10 10:20:55;;;;;;;;;3.33;1.00;;;;;24.96;35.10;102245.63;5019565;28;45431;-77
2022/07/10 10:23:25;;;;;;;;;2.33;2.33;;;;;25.04;34.98;102248.88;5018227;28;45433;-77
2022/07/10 10:25:54;;;;;;;;;4.00;3.00;;;;;25.07;34.99;102236.19;5018190;28;45293;-77
2022/07/10 10:28:23;;;;;;;;;4.33;4.00;;;;;25.15;34.89;102237.66;5007233;28;45423;-76
2022/07/10 10:30:52;;;;;;;;;3.33;2.00;;;;;25.23;35.12;102236.47;5016106;28;46095;-77
2022/07/10 10:33:48;;;;;;;;;3.67;3.67;;;;;25.30;34.41;102237.06;5005869;28;45305;-78
2022/07/10 10:36:34;;;;;;;;;2.00;2.00;;;;;25.30;34.51;102227.16;5010834;28;45506;-76
2022/07/10 10:39:02;;;;;;;;;3.33;3.33;;;;;25.35;34.48;102226.97;5019548;28;45375;-76
2022/07/10 10:41:41;;;;;;;;;3.00;3.00;;;;;25.40;34.86;102229.47;5017702;28;47375;-76
2022/07/10 10:44:06;;;;;;;;;3.00;2.00;;;;;25.42;34.36;102223.09;5009766;28;45260;-77
2022/07/10 10:46:32;;;;;;;;;3.00;2.00;;;;;25.41;34.51;102221.31;5017619;28;45359;-77
2022/07/10 10:49:08;;;;;;;;;3.67;2.67;;;;;25.49;34.25;102221.00;5019047;28;45668;-79
2022/07/10 10:55:09;;;;;;;;;4.00;2.33;;;;;25.95;33.94;102206.41;4986910;28;45530;-80
2022/07/10 10:57:44;;;;;;;;;3.00;3.00;;;;;26.23;33.88;102201.56;4987925;28;45424;-79
2022/07/10 11:00:14;;;;;;;;;3.00;3.00;;;;;26.42;33.45;102197.06;5018891;28;45508;-78
2022/07/10 11:02:41;;;;;;;;;4.00;3.00;;;;;26.66;34.00;102194.16;5021217;28;46339;-78
2022/07/10 11:05:22;;;;;;;;;2.33;2.33;;;;;26.95;33.48;102190.03;5020599;28;45736;-79
2022/07/10 11:08:01;;;;;;;;;3.67;2.00;;;;;27.14;32.55;102192.69;5020753;28;45354;-77
2022/07/10 11:10:44;;;;;;;;;2.00;2.00;;;;;27.35;32.96;102188.06;5022232;28;45396;-78
2022/07/10 11:13:17;;;;;;;;;6.00;2.33;;;;;27.52;32.25;102179.06;5020674;28;47885;-78
2022/07/10 11:15:52;;;;;;;;;6.00;4.00;;;;;27.74;32.05;102178.81;5020822;28;45492;-77
2022/07/10 11:18:28;;;;;;;;;3.33;2.33;;;;;27.93;32.03;102185.00;5021149;28;45491;-79
2022/07/10 11:20:56;;;;;;;;;3.67;3.67;;;;;27.98;31.50;102169.38;5020715;28;45496;-78
2022/07/10 11:23:59;;;;;;;;;3.00;3.00;;;;;28.10;31.69;102173.28;5020710;28;46970;-79
2022/07/10 11:26:36;;;;;;;;;2.33;1.33;;;;;28.25;31.70;102171.53;5021966;28;45297;-79
2022/07/10 11:29:06;;;;;;;;;3.00;2.00;;;;;28.44;31.60;102164.19;5020862;28;45319;-77
2022/07/10 11:31:44;;;;;;;;;2.00;1.67;;;;;28.58;31.30;102160.69;5022686;28;45330;-79
2022/07/10 11:34:12;;;;;;;;;3.00;3.00;;;;;28.67;31.10;102153.84;5022857;28;46201;-79
2022/07/10 11:36:42;;;;;;;;;1.33;1.33;;;;;28.72;30.85;102147.22;5020517;28;45356;-80
2022/07/10 11:39:12;;;;;;;;;2.67;2.67;;;;;28.87;31.00;102150.88;5018488;28;45331;-79
2022/07/10 11:41:45;;;;;;;;;1.00;1.00;;;;;28.99;30.43;102151.97;5022021;28;45295;-80
2022/07/10 11:44:20;;;;;;;;;1.00;0.67;;;;;29.05;30.13;102148.94;5017294;28;48208;-80
2022/07/10 11:47:06;;;;;;;;;1.33;1.33;;;;;29.14;29.95;102140.25;5015588;28;45617;-84
2022/07/10 11:50:19;;;;;;;;;2.00;2.00;;;;;29.23;29.81;102141.53;5010322;28;45804;-83